sensor_id;sensor_type;location;lat;lon;timestamp;pressure;altitude;pressure_sealevel;temperature;humidity
46690;BME280;32423;45.398;10.874;2022-11-15T00:00:22;101158.66;;;11.49;69.28
46690;BME280;32423;45.398;10.874;2022-11-15T00:03:26;101157.72;;;11.54;69.47
46690;BME280;32423;45.398;10.874;2022-11-15T00:06:29;101149.38;;;11.28;69.67
46690;BME280;32423;45.398;10.874;2022-11-15T00:09:32;101145.41;;;11.34;69.48
46690;BME280;32423;45.398;10.874;2022-11-15T00:12:35;101144.69;;;11.20;70.58
46690;BME280;32423;45.398;10.874;2022-11-15T00:15:39;101145.41;;;11.34;70.97
46690;BME280;32423;45.398;10.874;2022-11-15T00:18:43;101140.09;;;11.29;70.43
46690;BME280;32423;45.398;10.874;2022-11-15T00:21:46;101137.56;;;11.33;71.45
46690;BME280;32423;45.398;10.874;2022-11-15T00:24:50;101127.97;;;11.35;69.39
46690;BME280;32423;45.398;10.874;2022-11-15T00:27:56;101122.09;;;11.20;68.91
46690;BME280;32423;45.398;10.874;2022-11-15T00:31:04;101138.78;;;11.49;70.70
46690;BME280;32423;45.398;10.874;2022-11-15T00:34:08;101138.06;;;11.57;70.02
46690;BME280;32423;45.398;10.874;2022-11-15T00:37:11;101139.00;;;11.52;67.78
46690;BME280;32423;45.398;10.874;2022-11-15T00:40:15;101139.22;;;11.20;66.97
46690;BME280;32423;45.398;10.874;2022-11-15T00:43:18;101138.25;;;11.16;67.58
46690;BME280;32423;45.398;10.874;2022-11-15T00:46:21;101136.22;;;11.22;69.38
46690;BME280;32423;45.398;10.874;2022-11-15T00:49:24;101137.13;;;11.17;68.40
46690;BME280;32423;45.398;10.874;2022-11-15T00:52:28;101136.53;;;11.42;67.50
46690;BME280;32423;45.398;10.874;2022-11-15T00:55:31;101129.72;;;11.31;66.29
46690;BME280;32423;45.398;10.874;2022-11-15T00:58:34;101133.72;;;11.34;68.35
46690;BME280;32423;45.398;10.874;2022-11-15T01:01:37;101133.16;;;11.23;67.17
46690;BME280;32423;45.398;10.874;2022-11-15T01:04:41;101124.81;;;11.42;69.62
46690;BME280;32423;45.398;10.874;2022-11-15T01:07:44;101123.22;;;11.41;71.46
46690;BME280;32423;45.398;10.874;2022-11-15T01:10:47;101125.28;;;11.44;72.37
46690;BME280;32423;45.398;10.874;2022-11-15T01:13:51;101122.84;;;11.34;72.48
46690;BME280;32423;45.398;10.874;2022-11-15T01:16:54;101112.69;;;11.26;72.70
46690;BME280;32423;45.398;10.874;2022-11-15T01:19:57;101110.41;;;11.19;73.42
46690;BME280;32423;45.398;10.874;2022-11-15T01:23:01;101116.66;;;11.20;72.96
46690;BME280;32423;45.398;10.874;2022-11-15T01:26:06;101115.97;;;11.36;73.78
46690;BME280;32423;45.398;10.874;2022-11-15T01:29:10;101105.38;;;11.35;71.25
46690;BME280;32423;45.398;10.874;2022-11-15T01:32:13;101111.84;;;11.17;72.32
46690;BME280;32423;45.398;10.874;2022-11-15T01:35:16;101102.53;;;11.18;72.21
46690;BME280;32423;45.398;10.874;2022-11-15T01:38:20;101090.25;;;11.20;72.91
46690;BME280;32423;45.398;10.874;2022-11-15T01:41:26;101099.09;;;11.26;71.69
46690;BME280;32423;45.398;10.874;2022-11-15T01:47:35;101091.50;;;11.45;70.79
46690;BME280;32423;45.398;10.874;2022-11-15T01:50:40;101089.56;;;11.37;69.97
46690;BME280;32423;45.398;10.874;2022-11-15T01:53:45;101088.66;;;11.28;68.92
46690;BME280;32423;45.398;10.874;2022-11-15T01:56:50;101089.81;;;11.27;70.47
46690;BME280;32423;45.398;10.874;2022-11-15T01:59:55;101083.22;;;11.28;70.93
46690;BME280;32423;45.398;10.874;2022-11-15T02:02:59;101077.94;;;11.53;71.85
46690;BME280;32423;45.398;10.874;2022-11-15T02:06:03;101081.00;;;11.30;71.04
46690;BME280;32423;45.398;10.874;2022-11-15T02:09:07;101079.84;;;11.22;71.37
46690;BME280;32423;45.398;10.874;2022-11-15T02:12:11;101070.00;;;11.12;72.29
46690;BME280;32423;45.398;10.874;2022-11-15T02:15:16;101062.03;;;11.16;72.50
46690;BME280;32423;45.398;10.874;2022-11-15T02:18:32;101055.63;;;11.12;73.01
46690;BME280;32423;45.398;10.874;2022-11-15T02:28:10;101040.13;;;10.99;72.28
46690;BME280;32423;45.398;10.874;2022-11-15T02:34:39;101052.22;;;11.06;72.34
46690;BME280;32423;45.398;10.874;2022-11-15T02:41:01;101043.41;;;11.09;69.73
46690;BME280;32423;45.398;10.874;2022-11-15T02:44:17;101046.91;;;11.01;72.14
46690;BME280;32423;45.398;10.874;2022-11-15T02:47:23;101044.53;;;11.08;72.76
46690;BME280;32423;45.398;10.874;2022-11-15T02:50:28;101045.50;;;11.12;72.05
46690;BME280;32423;45.398;10.874;2022-11-15T02:53:32;101049.34;;;11.11;72.58
46690;BME280;32423;45.398;10.874;2022-11-15T02:56:35;101049.50;;;11.06;72.90
46690;BME280;32423;45.398;10.874;2022-11-15T02:59:56;101046.38;;;10.99;72.60
46690;BME280;32423;45.398;10.874;2022-11-15T03:03:19;101045.63;;;11.07;73.10
46690;BME280;32423;45.398;10.874;2022-11-15T03:06:40;101040.59;;;11.23;73.66
46690;BME280;32423;45.398;10.874;2022-11-15T03:12:50;101040.69;;;11.09;69.89
46690;BME280;32423;45.398;10.874;2022-11-15T03:16:00;101044.53;;;11.08;70.41
46690;BME280;32423;45.398;10.874;2022-11-15T03:22:29;101032.28;;;10.97;71.57
46690;BME280;32423;45.398;10.874;2022-11-15T03:25:33;101034.00;;;10.93;72.13
46690;BME280;32423;45.398;10.874;2022-11-15T03:31:47;101029.44;;;10.80;72.65
46690;BME280;32423;45.398;10.874;2022-11-15T03:35:04;101033.28;;;10.79;72.91
46690;BME280;32423;45.398;10.874;2022-11-15T03:38:23;101033.41;;;10.74;72.86
46690;BME280;32423;45.398;10.874;2022-11-15T03:41:28;101036.75;;;10.71;73.75
46690;BME280;32423;45.398;10.874;2022-11-15T03:48:10;101029.94;;;10.60;73.16
46690;BME280;32423;45.398;10.874;2022-11-15T03:51:16;101020.03;;;10.64;72.85
46690;BME280;32423;45.398;10.874;2022-11-15T03:54:19;101016.03;;;10.61;72.66
46690;BME280;32423;45.398;10.874;2022-11-15T03:57:23;101004.03;;;10.62;72.67
46690;BME280;32423;45.398;10.874;2022-11-15T04:00:26;101016.34;;;10.60;72.95
46690;BME280;32423;45.398;10.874;2022-11-15T04:03:30;101020.53;;;10.66;73.08
46690;BME280;32423;45.398;10.874;2022-11-15T04:06:33;101018.25;;;10.59;71.73
46690;BME280;32423;45.398;10.874;2022-11-15T04:09:37;101019.78;;;10.74;71.62
46690;BME280;32423;45.398;10.874;2022-11-15T04:13:01;101020.53;;;10.66;71.55
46690;BME280;32423;45.398;10.874;2022-11-15T04:16:05;101017.94;;;10.61;71.81
46690;BME280;32423;45.398;10.874;2022-11-15T04:19:08;101015.53;;;10.59;72.15
46690;BME280;32423;45.398;10.874;2022-11-15T04:22:30;101011.25;;;10.67;72.52
46690;BME280;32423;45.398;10.874;2022-11-15T04:25:53;100997.47;;;10.63;71.37
46690;BME280;32423;45.398;10.874;2022-11-15T04:28:58;100989.44;;;10.81;73.32
46690;BME280;32423;45.398;10.874;2022-11-15T04:32:20;100987.16;;;10.74;70.08
46690;BME280;32423;45.398;10.874;2022-11-15T04:35:23;100978.38;;;10.77;68.71
46690;BME280;32423;45.398;10.874;2022-11-15T04:38:26;100992.72;;;10.69;68.46
46690;BME280;32423;45.398;10.874;2022-11-15T04:41:30;101000.63;;;10.57;69.35
46690;BME280;32423;45.398;10.874;2022-11-15T04:44:33;100993.81;;;10.46;68.64
46690;BME280;32423;45.398;10.874;2022-11-15T04:47:37;100991.22;;;10.41;68.15
46690;BME280;32423;45.398;10.874;2022-11-15T04:50:40;100986.38;;;10.38;69.68
46690;BME280;32423;45.398;10.874;2022-11-15T04:53:44;100981.22;;;10.50;68.43
46690;BME280;32423;45.398;10.874;2022-11-15T04:56:47;100981.22;;;10.50;68.89
46690;BME280;32423;45.398;10.874;2022-11-15T04:59:51;100972.44;;;10.53;67.77
46690;BME280;32423;45.398;10.874;2022-11-15T05:02:54;100978.84;;;10.57;66.97
46690;BME280;32423;45.398;10.874;2022-11-15T05:06:16;100977.13;;;10.39;66.83
46690;BME280;32423;45.398;10.874;2022-11-15T05:09:19;100970.59;;;10.26;67.63
46690;BME280;32423;45.398;10.874;2022-11-15T05:12:23;100967.72;;;10.22;68.17
46690;BME280;32423;45.398;10.874;2022-11-15T05:15:26;100974.53;;;10.34;67.05
46690;BME280;32423;45.398;10.874;2022-11-15T05:18:30;100977.88;;;10.31;66.68
46690;BME280;32423;45.398;10.874;2022-11-15T05:21:34;100968.03;;;10.07;66.93
46690;BME280;32423;45.398;10.874;2022-11-15T05:24:39;100970.63;;;10.12;68.41
46690;BME280;32423;45.398;10.874;2022-11-15T05:27:42;100970.31;;;10.14;68.27
46690;BME280;32423;45.398;10.874;2022-11-15T05:30:46;100971.34;;;10.18;67.25
46690;BME280;32423;45.398;10.874;2022-11-15T05:33:49;100968.72;;;10.13;70.34
46690;BME280;32423;45.398;10.874;2022-11-15T05:36:54;100990.66;;;10.16;68.30
46690;BME280;32423;45.398;10.874;2022-11-15T05:39:58;100998.91;;;10.11;67.60
46690;BME280;32423;45.398;10.874;2022-11-15T05:43:01;100998.13;;;9.97;67.36
46690;BME280;32423;45.398;10.874;2022-11-15T05:46:06;100999.34;;;9.91;67.82
46690;BME280;32423;45.398;10.874;2022-11-15T05:49:10;100998.72;;;9.26;68.60
46690;BME280;32423;45.398;10.874;2022-11-15T05:52:16;100998.66;;;9.58;76.41
46690;BME280;32423;45.398;10.874;2022-11-15T05:55:20;101001.56;;;9.62;71.48
46690;BME280;32423;45.398;10.874;2022-11-15T05:58:23;100988.88;;;9.30;70.39
46690;BME280;32423;45.398;10.874;2022-11-15T06:01:26;101001.44;;;11.02;83.32
46690;BME280;32423;45.398;10.874;2022-11-15T06:04:30;100992.53;;;9.80;70.35
46690;BME280;32423;45.398;10.874;2022-11-15T06:07:34;100986.09;;;9.62;68.56
46690;BME280;32423;45.398;10.874;2022-11-15T06:10:37;100986.28;;;9.66;68.57
46690;BME280;32423;45.398;10.874;2022-11-15T06:13:40;100981.66;;;9.39;67.77
46690;BME280;32423;45.398;10.874;2022-11-15T06:16:44;100988.25;;;8.73;70.13
46690;BME280;32423;45.398;10.874;2022-11-15T06:19:47;100991.00;;;8.36;73.52
46690;BME280;32423;45.398;10.874;2022-11-15T06:22:51;100998.22;;;8.78;71.38
46690;BME280;32423;45.398;10.874;2022-11-15T06:25:57;101003.88;;;8.44;72.76
46690;BME280;32423;45.398;10.874;2022-11-15T06:29:02;101003.97;;;9.36;78.02
46690;BME280;32423;45.398;10.874;2022-11-15T06:32:05;101007.88;;;10.25;76.18
46690;BME280;32423;45.398;10.874;2022-11-15T06:35:09;101001.13;;;10.81;75.51
46690;BME280;32423;45.398;10.874;2022-11-15T06:38:12;101009.91;;;11.62;78.04
46690;BME280;32423;45.398;10.874;2022-11-15T06:41:15;101013.34;;;11.85;70.51
46690;BME280;32423;45.398;10.874;2022-11-15T06:44:19;101013.56;;;11.57;67.87
46690;BME280;32423;45.398;10.874;2022-11-15T06:47:23;101028.06;;;11.13;69.27
46690;BME280;32423;45.398;10.874;2022-11-15T06:50:26;101019.38;;;11.34;68.35
46690;BME280;32423;45.398;10.874;2022-11-15T06:53:29;101027.50;;;11.25;66.56
46690;BME280;32423;45.398;10.874;2022-11-15T06:56:33;101025.69;;;10.90;66.91
46690;BME280;32423;45.398;10.874;2022-11-15T06:59:36;101035.22;;;11.32;69.70
46690;BME280;32423;45.398;10.874;2022-11-15T07:02:39;101036.19;;;10.60;68.02
46690;BME280;32423;45.398;10.874;2022-11-15T07:05:50;101038.53;;;10.98;68.54
46690;BME280;32423;45.398;10.874;2022-11-15T07:08:53;101031.38;;;10.80;67.91
46690;BME280;32423;45.398;10.874;2022-11-15T07:11:56;101036.69;;;11.07;69.27
46690;BME280;32423;45.398;10.874;2022-11-15T07:15:00;101032.97;;;11.34;69.51
46690;BME280;32423;45.398;10.874;2022-11-15T07:18:03;101037.63;;;11.64;68.84
46690;BME280;32423;45.398;10.874;2022-11-15T07:21:07;101034.13;;;10.88;66.93
46690;BME280;32423;45.398;10.874;2022-11-15T07:24:11;101036.78;;;11.86;76.41
46690;BME280;32423;45.398;10.874;2022-11-15T07:27:15;101037.16;;;11.31;65.96
46690;BME280;32423;45.398;10.874;2022-11-15T07:30:18;101052.75;;;12.27;78.63
46690;BME280;32423;45.398;10.874;2022-11-15T07:33:21;101046.94;;;12.03;65.00
46690;BME280;32423;45.398;10.874;2022-11-15T07:36:24;101047.09;;;12.15;65.27
46690;BME280;32423;45.398;10.874;2022-11-15T07:39:28;101051.22;;;11.33;65.85
46690;BME280;32423;45.398;10.874;2022-11-15T07:42:31;101060.97;;;11.03;67.71
46690;BME280;32423;45.398;10.874;2022-11-15T07:45:53;101055.19;;;10.96;70.59
46690;BME280;32423;45.398;10.874;2022-11-15T07:48:56;101056.16;;;10.78;69.71
46690;BME280;32423;45.398;10.874;2022-11-15T07:52:00;101059.03;;;10.59;70.29
46690;BME280;32423;45.398;10.874;2022-11-15T07:55:03;101057.06;;;10.51;70.49
46690;BME280;32423;45.398;10.874;2022-11-15T07:58:08;101055.81;;;10.57;70.08
46690;BME280;32423;45.398;10.874;2022-11-15T08:01:12;101050.84;;;10.23;70.51
46690;BME280;32423;45.398;10.874;2022-11-15T08:04:16;101045.38;;;10.51;70.91
46690;BME280;32423;45.398;10.874;2022-11-15T08:07:19;101049.88;;;10.19;70.98
46690;BME280;32423;45.398;10.874;2022-11-15T08:10:23;101034.88;;;10.80;70.41
46690;BME280;32423;45.398;10.874;2022-11-15T08:13:26;101033.34;;;10.88;71.62
46690;BME280;32423;45.398;10.874;2022-11-15T08:16:30;101037.19;;;10.87;68.09
46690;BME280;32423;45.398;10.874;2022-11-15T08:19:33;101040.44;;;10.75;68.78
46690;BME280;32423;45.398;10.874;2022-11-15T08:22:36;101037.09;;;10.56;69.02
46690;BME280;32423;45.398;10.874;2022-11-15T08:25:40;101042.91;;;10.63;68.14
46690;BME280;32423;45.398;10.874;2022-11-15T08:28:44;101039.19;;;10.59;68.61
46690;BME280;32423;45.398;10.874;2022-11-15T08:31:48;101042.22;;;10.57;68.89
46690;BME280;32423;45.398;10.874;2022-11-15T08:34:51;101041.75;;;10.42;69.28
46690;BME280;32423;45.398;10.874;2022-11-15T08:37:54;101039.75;;;10.34;69.31
46690;BME280;32423;45.398;10.874;2022-11-15T08:41:02;101032.50;;;10.43;69.64
46690;BME280;32423;45.398;10.874;2022-11-15T08:44:06;101032.22;;;10.31;69.27
46690;BME280;32423;45.398;10.874;2022-11-15T08:47:12;101033.22;;;10.35;70.01
46690;BME280;32423;45.398;10.874;2022-11-15T08:50:16;101029.31;;;10.27;70.59
46690;BME280;32423;45.398;10.874;2022-11-15T08:53:19;101036.16;;;10.24;70.69
46690;BME280;32423;45.398;10.874;2022-11-15T08:56:23;101034.94;;;10.31;71.02
46690;BME280;32423;45.398;10.874;2022-11-15T08:59:26;101037.97;;;10.65;72.26
46690;BME280;32423;45.398;10.874;2022-11-15T09:02:32;101036.16;;;10.24;71.97
46690;BME280;32423;45.398;10.874;2022-11-15T09:05:37;101034.16;;;10.16;72.04
46690;BME280;32423;45.398;10.874;2022-11-15T09:08:40;101038.38;;;10.22;72.12
46690;BME280;32423;45.398;10.874;2022-11-15T09:11:44;101027.00;;;10.20;72.23
46690;BME280;32423;45.398;10.874;2022-11-15T09:14:47;101035.53;;;10.14;72.94
46690;BME280;32423;45.398;10.874;2022-11-15T09:17:50;101036.94;;;10.11;72.75
46690;BME280;32423;45.398;10.874;2022-11-15T09:20:57;101030.31;;;10.04;73.48
46690;BME280;32423;45.398;10.874;2022-11-15T09:24:01;101042.09;;;10.13;74.11
46690;BME280;32423;45.398;10.874;2022-11-15T09:27:05;101040.59;;;10.20;73.57
46690;BME280;32423;45.398;10.874;2022-11-15T09:30:08;101043.81;;;10.22;73.55
46690;BME280;32423;45.398;10.874;2022-11-15T09:33:12;101032.94;;;10.22;73.77
46690;BME280;32423;45.398;10.874;2022-11-15T09:36:15;101037.44;;;10.27;73.42
46690;BME280;32423;45.398;10.874;2022-11-15T09:39:19;101033.75;;;10.23;73.58
46690;BME280;32423;45.398;10.874;2022-11-15T09:49:02;101023.06;;;10.26;73.70
46690;BME280;32423;45.398;10.874;2022-11-15T09:51:56;101023.56;;;10.28;73.84
46690;BME280;32423;45.398;10.874;2022-11-15T09:54:42;101024.66;;;10.27;74.04
46690;BME280;32423;45.398;10.874;2022-11-15T09:57:32;101021.94;;;10.27;74.04
46690;BME280;32423;45.398;10.874;2022-11-15T10:03:10;101008.66;;;10.12;74.74
46690;BME280;32423;45.398;10.874;2022-11-15T10:05:59;101003.19;;;9.90;75.97
46690;BME280;32423;45.398;10.874;2022-11-15T10:08:46;101000.13;;;9.92;76.22
46690;BME280;32423;45.398;10.874;2022-11-15T10:11:35;100995.31;;;9.88;76.20
46690;BME280;32423;45.398;10.874;2022-11-15T10:14:21;100983.25;;;9.95;76.93
46690;BME280;32423;45.398;10.874;2022-11-15T10:17:19;100984.94;;;10.04;76.95
46690;BME280;32423;45.398;10.874;2022-11-15T10:20:07;100981.13;;;10.05;76.39
46690;BME280;32423;45.398;10.874;2022-11-15T10:22:55;100984.66;;;9.92;76.57
46690;BME280;32423;45.398;10.874;2022-11-15T10:25:40;100976.16;;;10.07;76.47
46690;BME280;32423;45.398;10.874;2022-11-15T10:28:28;100976.06;;;10.12;76.28
46690;BME280;32423;45.398;10.874;2022-11-15T10:31:26;100976.84;;;10.26;76.57
46690;BME280;32423;45.398;10.874;2022-11-15T10:34:13;100975.34;;;10.34;76.39
46690;BME280;32423;45.398;10.874;2022-11-15T10:36:58;100948.56;;;10.27;76.62
46690;BME280;32423;45.398;10.874;2022-11-15T10:39:43;100947.41;;;10.20;76.33
46690;BME280;32423;45.398;10.874;2022-11-15T10:42:28;100941.34;;;10.23;76.95
46690;BME280;32423;45.398;10.874;2022-11-15T10:45:29;100946.53;;;10.33;76.82
46690;BME280;32423;45.398;10.874;2022-11-15T10:50:58;100939.19;;;10.34;76.29
46690;BME280;32423;45.398;10.874;2022-11-15T10:53:43;100931.03;;;10.34;76.73
46690;BME280;32423;45.398;10.874;2022-11-15T10:56:29;100941.03;;;10.24;76.92
46690;BME280;32423;45.398;10.874;2022-11-15T10:59:15;100928.44;;;10.28;77.62
46690;BME280;32423;45.398;10.874;2022-11-15T11:02:00;100925.72;;;10.28;77.96
46690;BME280;32423;45.398;10.874;2022-11-15T11:04:49;100925.41;;;10.30;78.14
46690;BME280;32423;45.398;10.874;2022-11-15T11:07:34;100918.56;;;10.33;77.45
46690;BME280;32423;45.398;10.874;2022-11-15T11:10:20;100910.09;;;10.34;77.61
46690;BME280;32423;45.398;10.874;2022-11-15T11:13:14;100904.72;;;10.43;76.92
46690;BME280;32423;45.398;10.874;2022-11-15T11:16:05;100901.88;;;10.70;76.85
46690;BME280;32423;45.398;10.874;2022-11-15T11:19:02;100900.25;;;10.69;76.50
46690;BME280;32423;45.398;10.874;2022-11-15T11:21:58;100898.63;;;10.68;76.50
46690;BME280;32423;45.398;10.874;2022-11-15T11:34:00;100886.28;;;10.62;76.75
46690;BME280;32423;45.398;10.874;2022-11-15T11:36:51;100878.44;;;10.60;77.17
46690;BME280;32423;45.398;10.874;2022-11-15T11:39:45;100878.63;;;10.64;77.12
46690;BME280;32423;45.398;10.874;2022-11-15T11:51:32;100859.75;;;10.67;77.58
46690;BME280;32423;45.398;10.874;2022-11-15T11:57:04;100853.75;;;10.79;77.28
46690;BME280;32423;45.398;10.874;2022-11-15T11:59:53;100849.28;;;10.83;77.45
46690;BME280;32423;45.398;10.874;2022-11-15T12:05:44;100845.03;;;10.99;77.72
46690;BME280;32423;45.398;10.874;2022-11-15T12:11:35;100835.13;;;11.03;77.83
46690;BME280;32423;45.398;10.874;2022-11-15T12:14:25;100833.69;;;11.06;77.26
46690;BME280;32423;45.398;10.874;2022-11-15T12:17:11;100829.66;;;11.03;77.02
46690;BME280;32423;45.398;10.874;2022-11-15T12:19:56;100821.34;;;11.08;77.44
46690;BME280;32423;45.398;10.874;2022-11-15T12:22:47;100825.03;;;11.04;76.97
46690;BME280;32423;45.398;10.874;2022-11-15T12:25:38;100822.81;;;11.06;77.33
46690;BME280;32423;45.398;10.874;2022-11-15T12:28:30;100812.44;;;11.17;77.41
46690;BME280;32423;45.398;10.874;2022-11-15T12:36:57;100803.41;;;10.99;77.06
46690;BME280;32423;45.398;10.874;2022-11-15T12:45:49;100790.59;;;10.99;77.30
46690;BME280;32423;45.398;10.874;2022-11-15T12:51:22;100781.84;;;11.11;77.08
46690;BME280;32423;45.398;10.874;2022-11-15T13:02:43;100767.59;;;11.05;78.51
46690;BME280;32423;45.398;10.874;2022-11-15T13:08:34;100756.38;;;11.07;78.94
46690;BME280;32423;45.398;10.874;2022-11-15T13:14:38;100757.16;;;11.07;78.49
46690;BME280;32423;45.398;10.874;2022-11-15T13:23:07;100743.25;;;11.18;78.93
46690;BME280;32423;45.398;10.874;2022-11-15T13:28:51;100724.38;;;11.21;79.01
46690;BME280;32423;45.398;10.874;2022-11-15T13:31:42;100729.34;;;11.19;78.36
46690;BME280;32423;45.398;10.874;2022-11-15T13:34:31;100721.31;;;11.14;78.86
46690;BME280;32423;45.398;10.874;2022-11-15T13:46:19;100712.38;;;11.31;78.67
46690;BME280;32423;45.398;10.874;2022-11-15T13:49:07;100713.19;;;11.40;78.09
46690;BME280;32423;45.398;10.874;2022-11-15T13:51:52;100714.13;;;11.44;77.81
46690;BME280;32423;45.398;10.874;2022-11-15T13:54:46;100709.97;;;11.46;77.33
46690;BME280;32423;45.398;10.874;2022-11-15T13:57:41;100705.47;;;11.50;77.49
46690;BME280;32423;45.398;10.874;2022-11-15T14:00:32;100706.91;;;11.48;78.12
46690;BME280;32423;45.398;10.874;2022-11-15T14:03:19;100705.31;;;11.38;77.94
46690;BME280;32423;45.398;10.874;2022-11-15T14:09:00;100708.03;;;11.38;79.14
46690;BME280;32423;45.398;10.874;2022-11-15T14:11:50;100704.50;;;11.38;79.30
46690;BME280;32423;45.398;10.874;2022-11-15T14:14:34;100704.69;;;11.41;79.42
46690;BME280;32423;45.398;10.874;2022-11-15T14:20:20;100697.16;;;11.30;80.07
46690;BME280;32423;45.398;10.874;2022-11-15T14:23:24;100688.50;;;11.45;79.39
46690;BME280;32423;45.398;10.874;2022-11-15T14:26:29;100689.94;;;11.51;78.51
46690;BME280;32423;45.398;10.874;2022-11-15T14:29:26;100686.28;;;11.47;78.56
46690;BME280;32423;45.398;10.874;2022-11-15T14:32:13;100678.28;;;11.42;78.26
46690;BME280;32423;45.398;10.874;2022-11-15T14:34:59;100669.13;;;11.38;77.82
46690;BME280;32423;45.398;10.874;2022-11-15T14:37:46;100675.69;;;11.20;79.17
46690;BME280;32423;45.398;10.874;2022-11-15T14:40:31;100683.53;;;11.12;78.56
46690;BME280;32423;45.398;10.874;2022-11-15T14:43:15;100674.41;;;11.08;78.87
46690;BME280;32423;45.398;10.874;2022-11-15T14:46:00;100670.72;;;11.13;79.47
46690;BME280;32423;45.398;10.874;2022-11-15T14:48:44;100667.53;;;11.11;79.72
46690;BME280;32423;45.398;10.874;2022-11-15T14:51:29;100674.09;;;11.62;81.97
46690;BME280;32423;45.398;10.874;2022-11-15T14:54:17;100667.50;;;11.54;79.01
46690;BME280;32423;45.398;10.874;2022-11-15T14:57:01;100671.34;;;11.70;78.02
46690;BME280;32423;45.398;10.874;2022-11-15T14:59:45;100668.00;;;11.73;77.56
46690;BME280;32423;45.398;10.874;2022-11-15T15:02:30;100663.50;;;11.77;77.40
46690;BME280;32423;45.398;10.874;2022-11-15T15:05:16;100664.44;;;11.81;76.94
46690;BME280;32423;45.398;10.874;2022-11-15T15:08:01;100658.19;;;11.72;77.35
46690;BME280;32423;45.398;10.874;2022-11-15T15:10:45;100659.63;;;11.70;77.65
46690;BME280;32423;45.398;10.874;2022-11-15T15:13:30;100658.53;;;11.53;78.97
46690;BME280;32423;45.398;10.874;2022-11-15T15:16:14;100655.53;;;11.46;78.86
46690;BME280;32423;45.398;10.874;2022-11-15T15:18:59;100653.94;;;11.37;79.49
46690;BME280;32423;45.398;10.874;2022-11-15T15:21:43;100649.28;;;11.46;79.37
46690;BME280;32423;45.398;10.874;2022-11-15T15:24:27;100651.50;;;11.44;78.88
46690;BME280;32423;45.398;10.874;2022-11-15T15:27:12;100653.25;;;11.57;78.90
46690;BME280;32423;45.398;10.874;2022-11-15T15:29:57;100649.09;;;11.68;78.28
46690;BME280;32423;45.398;10.874;2022-11-15T15:32:42;100655.66;;;11.76;77.95
46690;BME280;32423;45.398;10.874;2022-11-15T15:35:30;100651.94;;;11.80;77.87
46690;BME280;32423;45.398;10.874;2022-11-15T15:38:15;100651.94;;;11.80;77.74
46690;BME280;32423;45.398;10.874;2022-11-15T15:41:00;100639.94;;;11.81;77.79
46690;BME280;32423;45.398;10.874;2022-11-15T15:43:47;100641.06;;;11.80;77.93
46690;BME280;32423;45.398;10.874;2022-11-15T15:46:32;100641.84;;;11.81;77.82
46690;BME280;32423;45.398;10.874;2022-11-15T15:49:18;100639.00;;;11.77;78.22
46690;BME280;32423;45.398;10.874;2022-11-15T15:52:03;100639.50;;;11.45;79.02
46690;BME280;32423;45.398;10.874;2022-11-15T15:54:47;100643.38;;;11.27;79.39
46690;BME280;32423;45.398;10.874;2022-11-15T15:57:31;100634.22;;;11.14;80.79
46690;BME280;32423;45.398;10.874;2022-11-15T16:00:16;100630.06;;;11.25;80.45
46690;BME280;32423;45.398;10.874;2022-11-15T16:03:01;100630.56;;;11.19;80.29
46690;BME280;32423;45.398;10.874;2022-11-15T16:05:45;100635.50;;;11.34;80.20
46690;BME280;32423;45.398;10.874;2022-11-15T16:08:29;100638.66;;;11.53;80.04
46690;BME280;32423;45.398;10.874;2022-11-15T16:11:14;100638.00;;;11.65;78.66
46690;BME280;32423;45.398;10.874;2022-11-15T16:13:59;100642.34;;;11.74;78.34
46690;BME280;32423;45.398;10.874;2022-11-15T16:16:43;100633.53;;;11.77;77.78
46690;BME280;32423;45.398;10.874;2022-11-15T16:19:28;100637.06;;;11.78;78.01
46690;BME280;32423;45.398;10.874;2022-11-15T16:22:12;100625.50;;;11.81;77.42
46690;BME280;32423;45.398;10.874;2022-11-15T16:25:00;100630.00;;;11.77;77.54
46690;BME280;32423;45.398;10.874;2022-11-15T16:27:44;100624.06;;;11.83;77.31
46690;BME280;32423;45.398;10.874;2022-11-15T16:30:30;100624.66;;;11.89;77.36
46690;BME280;32423;45.398;10.874;2022-11-15T16:33:14;100622.09;;;11.92;76.83
46690;BME280;32423;45.398;10.874;2022-11-15T16:36:06;100621.31;;;11.92;77.15
46690;BME280;32423;45.398;10.874;2022-11-15T16:38:56;100616.31;;;11.94;77.37
46690;BME280;32423;45.398;10.874;2022-11-15T16:41:41;100616.13;;;11.99;77.14
46690;BME280;32423;45.398;10.874;2022-11-15T16:44:32;100605.59;;;11.97;77.20
46690;BME280;32423;45.398;10.874;2022-11-15T16:47:17;100612.00;;;11.93;76.78
46690;BME280;32423;45.398;10.874;2022-11-15T16:50:02;100609.03;;;11.77;77.76
46690;BME280;32423;45.398;10.874;2022-11-15T16:52:46;100605.16;;;11.70;78.30
46690;BME280;32423;45.398;10.874;2022-11-15T16:55:30;100603.22;;;11.70;78.82
46690;BME280;32423;45.398;10.874;2022-11-15T16:58:15;100602.09;;;11.80;78.27
46690;BME280;32423;45.398;10.874;2022-11-15T17:00:59;100594.69;;;11.89;77.62
46690;BME280;32423;45.398;10.874;2022-11-15T17:03:44;100598.56;;;11.79;77.41
46690;BME280;32423;45.398;10.874;2022-11-15T17:06:29;100599.75;;;11.61;77.79
46690;BME280;32423;45.398;10.874;2022-11-15T17:09:18;100612.59;;;11.52;78.40
46690;BME280;32423;45.398;10.874;2022-11-15T17:12:03;100600.72;;;11.48;78.53
46690;BME280;32423;45.398;10.874;2022-11-15T17:14:47;100598.16;;;11.43;78.93
46690;BME280;32423;45.398;10.874;2022-11-15T17:17:32;100606.66;;;11.50;78.76